Time;durP1;ratioP1;P1;durP2;ratioP2;P2;SDS_P1;SDS_P2;PMS_P1;PMS_P2;Temp;Humidity;BMP_temperature;BMP_pressure;BME280_temperature;BME280_humidity;BME280_pressure;Samples;Min_cycle;Max_cycle;Signal;HPM_P1;HPM_P2
2023/09/20 00:00:51;;;;;;;6.80;2.63;;;;;;;16.60;98.50;100890.69;4952841;28;20506;-76
2023/09/20 00:03:19;;;;;;;9.60;2.80;;;;;;;16.57;97.75;100880.53;4971382;28;20027;-76
2023/09/20 00:05:47;;;;;;;7.82;2.95;;;;;;;16.34;98.46;100859.09;4954004;28;20065;-77
2023/09/20 00:08:12;;;;;;;7.32;2.70;;;;;;;16.37;99.50;100877.03;4971475;28;20046;-76
2023/09/20 00:10:39;;;;;;;8.18;2.70;;;;;;;16.25;99.58;100865.09;4971386;28;20023;-77
2023/09/20 00:13:04;;;;;;;7.00;2.25;;;;;;;16.21;100.00;100861.91;4969766;28;20039;-77
2023/09/20 00:15:30;;;;;;;7.95;2.72;;;;;;;16.24;100.00;100866.88;4971142;28;20026;-76
2023/09/20 00:17:56;;;;;;;8.25;2.70;;;;;;;16.16;100.00;100861.50;4970983;28;20108;-76
2023/09/20 00:20:21;;;;;;;8.45;2.78;;;;;;;16.36;100.00;100883.22;4971300;28;20034;-77
2023/09/20 00:22:47;;;;;;;9.48;2.65;;;;;;;16.25;100.00;100862.47;4971180;28;20034;-76
2023/09/20 00:25:14;;;;;;;9.35;3.30;;;;;;;16.28;100.00;100862.22;4971309;28;20490;-77
2023/09/20 00:27:40;;;;;;;7.22;2.50;;;;;;;16.40;100.00;100882.00;4971024;28;20088;-77
2023/09/20 00:30:10;;;;;;;8.52;2.83;;;;;;;16.38;99.98;100883.09;4970847;28;20026;-77
2023/09/20 00:32:42;;;;;;;9.88;2.95;;;;;;;16.27;100.00;100882.22;4971083;28;20029;-77
2023/09/20 00:35:16;;;;;;;9.27;2.83;;;;;;;16.13;100.00;100880.00;4970862;28;20033;-77
2023/09/20 00:37:44;;;;;;;9.13;2.65;;;;;;;15.98;100.00;100876.91;4971101;28;20041;-77
2023/09/20 00:40:21;;;;;;;7.25;2.55;;;;;;;15.86;100.00;100870.13;4953800;28;20383;-78
2023/09/20 00:42:51;;;;;;;7.97;2.70;;;;;;;15.74;100.00;100877.19;4971052;28;20476;-77
2023/09/20 00:45:19;;;;;;;6.85;2.63;;;;;;;15.65;100.00;100870.16;4970694;28;20444;-77
2023/09/20 00:47:51;;;;;;;7.50;3.17;;;;;;;15.60;100.00;100872.31;4970843;28;20038;-76
2023/09/20 00:50:17;;;;;;;8.30;2.58;;;;;;;15.54;100.00;100874.59;4970778;28;20502;-76
2023/09/20 00:52:44;;;;;;;10.13;2.72;;;;;;;15.47;100.00;100867.28;4970733;28;20030;-75
2023/09/20 00:55:21;;;;;;;7.90;2.90;;;;;;;15.44;100.00;100875.34;4970678;28;20054;-77
2023/09/20 00:57:53;;;;;;;7.47;3.10;;;;;;;15.42;100.00;100879.00;4970630;28;20449;-76
2023/09/20 01:00:27;;;;;;;10.10;2.92;;;;;;;15.38;100.00;100869.81;4970345;28;20104;-76
2023/09/20 01:02:54;;;;;;;6.63;2.47;;;;;;;15.32;100.00;100854.69;4970668;28;20387;-76
2023/09/20 01:05:21;;;;;;;8.60;2.60;;;;;;;15.42;100.00;100863.38;4970667;28;20049;-77
2023/09/20 01:07:49;;;;;;;8.05;2.65;;;;;;;15.45;100.00;100865.75;4970613;28;20043;-76
2023/09/20 01:10:15;;;;;;;7.65;2.45;;;;;;;15.46;100.00;100862.19;4970579;28;20114;-76
2023/09/20 01:12:40;;;;;;;8.48;2.60;;;;;;;15.56;100.00;100867.47;4973826;28;20532;-77
2023/09/20 01:15:07;;;;;;;7.63;2.80;;;;;;;15.57;100.00;100869.94;4973730;28;20027;-76
2023/09/20 01:17:45;;;;;;;6.55;2.47;;;;;;;15.58;100.00;100868.97;4974119;28;20030;-76
2023/09/20 01:20:15;;;;;;;5.75;2.55;;;;;;;15.39;100.00;100832.41;4973868;28;20495;-77
2023/09/20 01:22:41;;;;;;;7.30;2.90;;;;;;;15.51;100.00;100865.22;4973954;28;20109;-76
2023/09/20 01:25:07;;;;;;;9.48;3.03;;;;;;;15.42;100.00;100850.38;4973698;28;20610;-77
2023/09/20 01:27:35;;;;;;;9.10;2.65;;;;;;;15.44;100.00;100853.69;4973837;28;20396;-76
2023/09/20 01:30:02;;;;;;;8.07;2.67;;;;;;;15.41;100.00;100859.97;4973722;28;20117;-76
2023/09/20 01:32:29;;;;;;;8.18;2.90;;;;;;;15.39;100.00;100854.06;4973870;28;20027;-77
2023/09/20 01:34:56;;;;;;;7.30;2.47;;;;;;;15.34;100.00;100851.03;4974028;28;20118;-77
2023/09/20 01:37:22;;;;;;;7.70;3.00;;;;;;;15.24;100.00;100839.75;4973527;28;20035;-76
2023/09/20 01:39:47;;;;;;;6.40;2.70;;;;;;;15.08;100.00;100813.31;4973908;28;20552;-77
2023/09/20 01:42:16;;;;;;;8.60;2.50;;;;;;;15.25;100.00;100848.38;4973348;28;20018;-77
2023/09/20 01:44:42;;;;;;;10.95;2.90;;;;;;;15.18;100.00;100838.44;4973417;28;20027;-77
2023/09/20 01:47:07;;;;;;;7.15;2.47;;;;;;;15.15;100.00;100843.91;4972733;28;20029;-78
2023/09/20 01:49:34;;;;;;;8.27;2.35;;;;;;;15.14;100.00;100839.66;4973235;28;20037;-79
2023/09/20 01:52:00;;;;;;;6.10;2.60;;;;;;;15.06;100.00;100823.03;4973618;28;20025;-76
2023/09/20 01:54:28;;;;;;;8.02;2.65;;;;;;;15.15;100.00;100835.28;4973408;28;20031;-77
2023/09/20 01:56:55;;;;;;;6.80;2.75;;;;;;;15.04;100.00;100815.31;4973125;28;20510;-76
2023/09/20 01:59:23;;;;;;;7.35;2.38;;;;;;;15.06;100.00;100816.06;4972953;28;20070;-76
2023/09/20 02:01:48;;;;;;;9.40;2.85;;;;;;;15.14;100.00;100818.84;4973191;28;20472;-78
2023/09/20 02:04:21;;;;;;;8.43;2.50;;;;;;;15.04;100.00;100796.31;4971683;28;20092;-78
2023/09/20 02:06:47;;;;;;;9.55;3.25;;;;;;;15.15;100.00;100798.88;4973379;28;20033;-79
2023/09/20 02:09:13;;;;;;;6.82;2.50;;;;;;;15.13;100.00;100803.34;4973070;28;20047;-77
2023/09/20 02:11:39;;;;;;;9.02;3.03;;;;;;;15.09;100.00;100800.19;4973102;28;20034;-75
2023/09/20 02:14:04;;;;;;;8.00;2.75;;;;;;;15.06;100.00;100803.06;4972992;28;20030;-77
2023/09/20 02:16:32;;;;;;;6.60;2.65;;;;;;;14.85;100.00;100765.81;4972880;28;20092;-78
2023/09/20 02:18:58;;;;;;;7.95;2.80;;;;;;;15.08;100.00;100790.75;4972989;28;20027;-76
2023/09/20 02:21:23;;;;;;;9.73;3.10;;;;;;;14.92;100.00;100772.13;4972750;28;20031;-76
2023/09/20 02:23:56;;;;;;;10.35;2.92;;;;;;;15.02;100.00;100791.22;4972021;28;20033;-78
2023/09/20 02:26:21;;;;;;;7.95;2.80;;;;;;;15.06;100.00;100790.03;4956616;28;20037;-76
2023/09/20 02:28:46;;;;;;;10.23;3.22;;;;;;;15.14;100.00;100797.19;4972703;28;20107;-76
2023/09/20 02:31:12;;;;;;;8.85;2.80;;;;;;;15.16;100.00;100787.50;4972633;28;20027;-78
2023/09/20 02:33:38;;;;;;;9.27;2.60;;;;;;;15.29;100.00;100795.94;4972365;28;20038;-76
2023/09/20 02:36:04;;;;;;;10.15;2.60;;;;;;;15.35;100.00;100792.84;4972611;28;20136;-77
2023/09/20 02:38:31;;;;;;;6.93;2.58;;;;;;;15.37;100.00;100790.09;4972578;28;20103;-75
2023/09/20 02:40:57;;;;;;;8.75;2.65;;;;;;;15.19;100.00;100762.06;4972895;28;20031;-76
2023/09/20 02:43:23;;;;;;;8.20;2.55;;;;;;;15.35;100.00;100786.81;4972365;28;20035;-77
2023/09/20 02:45:49;;;;;;;8.05;2.70;;;;;;;15.35;100.00;100777.22;4972714;28;20049;-77
2023/09/20 02:48:14;;;;;;;11.10;3.05;;;;;;;15.34;100.00;100764.31;4972391;28;20056;-78
2023/09/20 02:50:44;;;;;;;6.50;2.80;;;;;;;15.30;100.00;100749.94;4972378;28;20030;-76
2023/09/20 02:53:09;;;;;;;7.75;2.42;;;;;;;15.42;100.00;100773.13;4972400;28;20022;-79
2023/09/20 02:55:35;;;;;;;8.80;3.13;;;;;;;15.28;100.00;100752.66;4972212;28;20031;-76
2023/09/20 02:58:00;;;;;;;7.45;2.47;;;;;;;15.30;100.00;100758.56;4972210;28;20031;-76
2023/09/20 03:00:28;;;;;;;6.93;2.70;;;;;;;15.25;100.00;100739.09;4970795;28;20042;-77
2023/09/20 03:02:56;;;;;;;8.60;2.97;;;;;;;15.42;100.00;100769.72;4972139;28;20461;-76
2023/09/20 03:05:31;;;;;;;11.73;2.78;;;;;;;15.40;100.00;100769.00;4972172;28;20079;-76
2023/09/20 03:07:57;;;;;;;7.85;3.00;;;;;;;15.27;100.00;100753.63;4972081;28;20055;-76
2023/09/20 03:10:23;;;;;;;8.20;3.10;;;;;;;15.36;100.00;100771.06;4972178;28;20046;-76
2023/09/20 03:12:53;;;;;;;8.32;2.88;;;;;;;15.27;100.00;100748.41;4955579;28;20035;-75
2023/09/20 03:15:23;;;;;;;8.65;2.90;;;;;;;15.33;100.00;100763.50;4972241;28;20022;-77
2023/09/20 03:17:54;;;;;;;8.77;3.05;;;;;;;15.18;100.00;100739.59;4971904;28;20035;-76
2023/09/20 03:20:23;;;;;;;9.73;3.20;;;;;;;15.32;100.00;100756.66;4971806;28;20541;-75
2023/09/20 03:22:51;;;;;;;6.25;2.67;;;;;;;15.32;100.00;100743.63;4971920;28;20030;-76
2023/09/20 03:25:19;;;;;;;8.63;3.25;;;;;;;15.29;100.00;100743.09;4954107;28;20077;-76
2023/09/20 03:27:45;;;;;;;9.30;2.72;;;;;;;15.26;100.00;100746.78;4971984;28;20416;-75
2023/09/20 03:30:13;;;;;;;7.25;2.85;;;;;;;15.22;100.00;100734.97;4972025;28;20034;-75
2023/09/20 03:32:42;;;;;;;8.25;2.75;;;;;;;15.24;100.00;100758.22;4972046;28;20033;-76
2023/09/20 03:35:11;;;;;;;8.98;3.00;;;;;;;15.13;100.00;100741.75;4971791;28;20027;-76
2023/09/20 03:37:37;;;;;;;10.25;3.40;;;;;;;15.20;100.00;100757.69;4971755;28;20043;-76
2023/09/20 03:40:10;;;;;;;9.40;3.03;;;;;;;15.22;100.00;100755.78;4971591;28;20019;-76
2023/09/20 03:42:40;;;;;;;11.23;3.13;;;;;;;15.20;100.00;100752.47;4971964;28;20057;-76
2023/09/20 03:45:10;;;;;;;9.18;3.33;;;;;;;15.18;100.00;100752.59;4971624;28;20018;-76
2023/09/20 03:47:39;;;;;;;8.77;3.22;;;;;;;15.13;100.00;100762.56;4971575;28;20019;-76
2023/09/20 03:50:06;;;;;;;9.63;3.13;;;;;;;15.03;100.00;100750.44;4971623;28;20023;-76
2023/09/20 03:52:38;;;;;;;9.68;3.00;;;;;;;15.06;100.00;100758.00;4971551;28;20034;-76
2023/09/20 03:55:07;;;;;;;8.60;3.60;;;;;;;14.95;100.00;100742.47;4971819;28;20031;-77
2023/09/20 03:57:33;;;;;;;8.73;2.97;;;;;;;15.00;100.00;100755.91;4971522;28;20043;-76
2023/09/20 03:59:59;;;;;;;5.50;2.60;;;;;;;14.98;100.00;100760.41;4971831;28;20034;-77
2023/09/20 04:02:25;;;;;;;7.70;2.90;;;;;;;14.95;100.00;100755.47;4971158;28;20019;-77
2023/09/20 04:04:53;;;;;;;10.73;3.05;;;;;;;14.82;100.00;100740.88;4971414;28;20038;-77
2023/09/20 04:07:19;;;;;;;12.80;3.40;;;;;;;14.88;100.00;100753.38;4955046;28;20492;-76
2023/09/20 04:09:45;;;;;;;8.25;3.10;;;;;;;14.79;100.00;100740.31;4971403;28;20046;-78
2023/09/20 04:12:12;;;;;;;7.35;3.25;;;;;;;14.77;100.00;100740.44;4971358;28;20026;-79
2023/09/20 04:14:37;;;;;;;9.13;2.83;;;;;;;14.82;100.00;100748.66;4971325;28;20045;-79
2023/09/20 04:17:04;;;;;;;5.78;2.92;;;;;;;14.78;100.00;100741.25;4970861;28;20034;-76
2023/09/20 04:19:30;;;;;;;8.77;2.80;;;;;;;14.77;100.00;100747.41;4971189;28;20030;-76
2023/09/20 04:21:56;;;;;;;10.57;3.53;;;;;;;14.72;100.00;100739.16;4971069;28;20018;-76
2023/09/20 04:24:22;;;;;;;10.88;3.10;;;;;;;14.70;100.00;100746.25;4970951;28;20476;-75
2023/09/20 04:26:48;;;;;;;7.68;2.92;;;;;;;14.52;100.00;100713.00;4971218;28;20037;-75
2023/09/20 04:29:14;;;;;;;11.00;3.33;;;;;;;14.58;100.00;100733.31;4970916;28;20054;-76
2023/09/20 04:31:43;;;;;;;8.73;2.97;;;;;;;14.56;100.00;100727.41;4971404;28;20115;-79
2023/09/20 04:34:10;;;;;;;10.57;3.50;;;;;;;14.53;100.00;100722.44;4971045;28;20023;-76
2023/09/20 04:36:36;;;;;;;10.65;3.22;;;;;;;14.51;100.00;100711.34;4971031;28;20034;-75
2023/09/20 04:39:01;;;;;;;7.55;3.05;;;;;;;14.24;100.00;100666.78;4970998;28;20030;-77
2023/09/20 04:41:27;;;;;;;9.40;3.30;;;;;;;14.47;100.00;100717.75;4971033;28;20113;-76
2023/09/20 04:43:52;;;;;;;10.00;3.30;;;;;;;14.45;100.00;100714.44;4971008;28;20031;-75
2023/09/20 04:46:17;;;;;;;9.30;3.53;;;;;;;14.44;100.00;100715.38;4972471;28;20038;-76
2023/09/20 04:48:44;;;;;;;10.43;3.33;;;;;;;14.43;100.00;100716.31;4974146;28;20019;-75
2023/09/20 04:51:09;;;;;;;6.30;3.20;;;;;;;14.27;100.00;100695.97;4974372;28;20034;-75
2023/09/20 04:53:35;;;;;;;9.20;3.50;;;;;;;14.26;100.00;100702.13;4974216;28;20423;-76
2023/09/20 04:56:01;;;;;;;7.80;3.13;;;;;;;14.27;100.00;100701.16;4957057;28;20038;-75
2023/09/20 04:58:26;;;;;;;9.80;3.92;;;;;;;14.35;100.00;100718.69;4974060;28;20106;-76
2023/09/20 05:00:52;;;;;;;6.80;3.08;;;;;;;14.30;100.00;100711.28;4974189;28;20035;-76
2023/09/20 05:03:19;;;;;;;10.32;3.17;;;;;;;14.32;100.00;100713.75;4973949;28;20074;-75
2023/09/20 05:05:47;;;;;;;9.52;3.13;;;;;;;14.34;100.00;100722.25;4974116;28;20030;-80
2023/09/20 05:08:15;;;;;;;9.52;3.42;;;;;;;14.23;100.00;100702.34;4973730;28;20042;-76
2023/09/20 05:10:42;;;;;;;8.00;3.15;;;;;;;14.24;100.00;100708.34;4974207;28;20023;-77
2023/09/20 05:13:08;;;;;;;9.55;3.08;;;;;;;14.21;100.00;100711.19;4973905;28;20106;-77
2023/09/20 05:15:33;;;;;;;7.95;3.58;;;;;;;14.26;100.00;100712.50;4974076;28;20061;-78
2023/09/20 05:17:59;;;;;;;6.68;3.10;;;;;;;14.26;100.00;100711.69;4973972;28;20058;-77
2023/09/20 05:20:25;;;;;;;10.32;3.70;;;;;;;14.23;100.00;100715.31;4973732;28;20448;-77
2023/09/20 05:22:50;;;;;;;8.75;3.25;;;;;;;14.25;100.00;100716.00;4973858;28;20103;-77
2023/09/20 05:25:16;;;;;;;9.65;3.53;;;;;;;14.24;100.00;100714.38;4973584;28;20019;-77
2023/09/20 05:27:43;;;;;;;9.32;3.42;;;;;;;14.18;100.00;100708.88;4973967;28;20035;-77
2023/09/20 05:30:09;;;;;;;11.05;3.28;;;;;;;14.07;100.00;100684.56;4973755;28;20033;-76
2023/09/20 05:32:35;;;;;;;8.65;3.33;;;;;;;14.14;100.00;100681.47;4974026;28;20030;-77
2023/09/20 05:35:01;;;;;;;7.22;3.30;;;;;;;14.31;100.00;100709.53;4973777;28;20105;-78
2023/09/20 05:37:26;;;;;;;8.23;3.17;;;;;;;14.21;100.00;100685.22;4973776;28;20122;-78
2023/09/20 05:39:51;;;;;;;6.88;3.10;;;;;;;14.35;100.00;100698.78;4956488;28;20031;-79
2023/09/20 05:42:20;;;;;;;7.72;3.42;;;;;;;14.42;100.00;100703.47;4973689;28;20038;-78
2023/09/20 05:44:45;;;;;;;10.30;3.80;;;;;;;14.47;100.00;100699.59;4973592;28;20061;-78
2023/09/20 05:47:11;;;;;;;9.00;3.60;;;;;;;14.45;100.00;100685.88;4955863;28;20066;-78
2023/09/20 05:49:36;;;;;;;9.63;3.03;;;;;;;14.48;100.00;100683.03;4973345;28;20030;-77
2023/09/20 05:52:05;;;;;;;8.02;3.38;;;;;;;14.61;100.00;100693.25;4973499;28;20370;-79
2023/09/20 05:54:31;;;;;;;8.70;3.40;;;;;;;14.66;100.00;100690.28;4973501;28;20092;-78
2023/09/20 05:56:56;;;;;;;8.25;3.95;;;;;;;14.63;100.00;100688.75;4972570;28;20465;-78
2023/09/20 05:59:22;;;;;;;7.95;3.60;;;;;;;14.61;100.00;100678.47;4972887;28;20023;-79
2023/09/20 06:01:48;;;;;;;9.00;3.40;;;;;;;14.81;100.00;100702.00;4973399;28;20096;-78
2023/09/20 06:04:18;;;;;;;11.23;3.85;;;;;;;14.86;100.00;100702.47;4973784;28;20027;-77
2023/09/20 06:06:44;;;;;;;9.40;3.83;;;;;;;14.84;100.00;100691.34;4973154;28;20027;-79
2023/09/20 06:09:10;;;;;;;7.43;3.03;;;;;;;14.79;100.00;100670.13;4972740;28;20047;-77
2023/09/20 06:11:35;;;;;;;9.10;3.45;;;;;;;14.95;100.00;100693.06;4973262;28;20046;-79
2023/09/20 06:14:01;;;;;;;7.22;3.20;;;;;;;15.04;100.00;100690.50;4973187;28;20030;-78
2023/09/20 06:16:26;;;;;;;9.38;3.13;;;;;;;14.94;100.00;100663.63;4973067;28;20026;-78
2023/09/20 06:18:52;;;;;;;8.80;3.10;;;;;;;14.94;100.00;100663.63;4972834;28;20029;-76
2023/09/20 06:21:20;;;;;;;9.82;3.25;;;;;;;15.23;100.00;100688.94;4972686;28;20038;-80
2023/09/20 06:23:45;;;;;;;9.65;3.35;;;;;;;15.27;100.00;100682.56;4964687;28;20361;-79
2023/09/20 06:26:12;;;;;;;7.30;2.90;;;;;;;15.36;100.00;100690.41;4954083;29;20046;-76
2023/09/20 06:28:44;;;;;;;6.40;3.00;;;;;;;15.46;100.00;100693.03;4953865;29;20429;-78
2023/09/20 06:31:14;;;;;;;10.15;2.88;;;;;;;16.03;100.00;100675.97;4953392;29;20464;-79
2023/09/20 06:33:41;;;;;;;6.75;2.65;;;;;;;17.03;100.00;100652.97;4953389;28;20488;-78
2023/09/20 06:36:07;;;;;;;7.13;2.72;;;;;;;17.89;100.00;100673.59;4953396;29;20027;-79
2023/09/20 06:38:34;;;;;;;7.53;3.05;;;;;;;18.37;98.38;100694.13;4936244;28;20028;-77
2023/09/20 06:40:59;;;;;;;7.75;2.38;;;;;;;18.63;96.85;100696.81;4953377;29;20035;-78
2023/09/20 06:43:25;;;;;;;6.28;2.30;;;;;;;19.07;93.27;100700.25;4953536;29;20109;-76
2023/09/20 06:45:53;;;;;;;5.40;2.30;;;;;;;19.63;90.88;100698.09;4953238;28;20039;-78
2023/09/20 06:48:23;;;;;;;6.85;2.40;;;;;;;20.15;86.93;100706.56;4953319;28;20492;-78
2023/09/20 06:50:49;;;;;;;12.02;2.05;;;;;;;20.59;83.25;100699.25;4953225;29;20400;-78
2023/09/20 06:53:17;;;;;;;5.90;2.53;;;;;;;20.91;81.50;100687.09;4953028;28;20046;-75
2023/09/20 06:55:43;;;;;;;5.95;2.13;;;;;;;20.68;80.63;100691.41;4953063;29;20035;-77
2023/09/20 06:58:08;;;;;;;7.40;2.45;;;;;;;19.68;85.33;100695.84;4953080;28;20081;-77
2023/09/20 07:00:35;;;;;;;5.30;2.17;;;;;;;18.87;90.30;100681.31;4953216;29;20500;-77
2023/09/20 07:03:02;;;;;;;6.97;2.60;;;;;;;18.43;94.07;100703.19;4953263;29;20023;-76
2023/09/20 07:05:28;;;;;;;6.88;2.30;;;;;;;18.08;96.53;100701.38;4952730;28;20473;-76
2023/09/20 07:07:54;;;;;;;5.22;2.40;;;;;;;17.83;98.44;100698.53;4952872;29;20063;-77
2023/09/20 07:10:20;;;;;;;8.30;2.53;;;;;;;17.62;100.00;100693.53;4952636;29;20023;-78
2023/09/20 07:12:45;;;;;;;5.55;2.53;;;;;;;17.55;100.00;100702.06;4952867;29;20110;-81
2023/09/20 07:15:21;;;;;;;4.82;2.22;;;;;;;17.40;100.00;100699.94;4953203;28;20027;-78
2023/09/20 07:17:58;;;;;;;8.23;2.50;;;;;;;17.24;100.00;100689.28;4952862;28;20035;-77
2023/09/20 07:20:29;;;;;;;7.68;2.67;;;;;;;17.18;100.00;100701.09;4952727;28;20031;-79
2023/09/20 07:22:55;;;;;;;5.93;2.47;;;;;;;17.14;100.00;100685.88;4952910;29;20081;-80
2023/09/20 07:25:22;;;;;;;4.65;2.60;;;;;;;17.18;100.00;100697.69;4953179;28;20027;-79
2023/09/20 07:27:50;;;;;;;6.90;2.47;;;;;;;17.29;100.00;100696.69;4953041;28;20038;-76
2023/09/20 07:30:19;;;;;;;7.47;2.72;;;;;;;17.32;100.00;100689.41;4952961;28;20087;-76
2023/09/20 07:32:46;;;;;;;7.75;2.80;;;;;;;17.36;100.00;100693.34;4952527;29;20055;-77
2023/09/20 07:35:36;;;;;;;4.95;2.35;;;;;;;17.40;100.00;100697.34;4952411;29;20031;-80
2023/09/20 07:38:03;;;;;;;10.05;2.83;;;;;;;17.40;100.00;100693.88;4952578;29;20114;-80
2023/09/20 07:40:30;;;;;;;7.93;2.60;;;;;;;17.56;100.00;100698.50;4952423;29;20110;-77
2023/09/20 07:42:59;;;;;;;8.77;2.97;;;;;;;17.64;100.00;100695.97;4952591;29;20043;-78
2023/09/20 07:45:32;;;;;;;6.70;2.75;;;;;;;17.80;100.00;100711.03;4952238;28;20035;-78
2023/09/20 07:47:57;;;;;;;6.95;2.85;;;;;;;17.92;100.00;100702.03;4952418;29;20030;-77
2023/09/20 07:50:25;;;;;;;4.35;2.40;;;;;;;17.96;100.00;100690.31;4952406;28;20027;-78
2023/09/20 07:52:50;;;;;;;6.45;2.42;;;;;;;18.02;100.00;100685.34;4952654;29;20046;-78
2023/09/20 07:55:17;;;;;;;7.30;2.35;;;;;;;18.08;100.00;100691.75;4952470;29;20578;-77
2023/09/20 07:57:42;;;;;;;6.00;2.30;;;;;;;18.10;99.62;100689.00;4952503;28;20042;-79
2023/09/20 08:00:10;;;;;;;6.53;2.20;;;;;;;18.10;100.00;100689.81;4952144;29;20396;-79
2023/09/20 08:02:37;;;;;;;5.38;2.20;;;;;;;18.14;100.00;100683.31;4952104;29;20034;-78
2023/09/20 08:05:02;;;;;;;5.78;2.42;;;;;;;18.19;100.00;100680.25;4952459;29;20362;-78
2023/09/20 08:07:28;;;;;;;9.38;2.63;;;;;;;18.12;99.50;100668.78;4952195;29;20031;-77
2023/09/20 08:09:53;;;;;;;6.97;2.50;;;;;;;18.25;100.00;100684.88;4951406;29;20047;-74
2023/09/20 08:12:18;;;;;;;4.70;2.08;;;;;;;18.35;98.70;100683.84;4951998;28;20045;-76
2023/09/20 08:14:51;;;;;;;5.82;2.03;;;;;;;18.35;99.51;100662.09;4951954;29;20027;-74
2023/09/20 08:20:00;;;;;;;5.18;2.40;;;;;;;18.55;96.50;100696.75;4937085;28;20046;-75
2023/09/20 09:00:46;;;;;;;6.47;2.35;;;;;;;19.31;93.16;100664.72;4951687;29;20047;-78
2023/09/20 09:03:12;;;;;;;7.27;2.60;;;;;;;19.57;91.19;100696.94;4951494;29;20114;-76
2023/09/20 09:05:37;;;;;;;7.43;3.05;;;;;;;19.58;90.78;100675.00;4951515;28;20737;-77
2023/09/20 09:08:03;;;;;;;8.93;2.53;;;;;;;19.98;90.90;100703.13;4951596;28;20076;-79
2023/09/20 09:10:29;;;;;;;8.35;3.08;;;;;;;19.98;89.27;100716.22;4947381;29;20054;-78
2023/09/20 09:12:57;;;;;;;8.25;2.92;;;;;;;20.02;90.19;100699.19;4951842;28;20070;-79
2023/09/20 09:15:24;;;;;;;5.82;2.70;;;;;;;19.94;88.56;100680.81;4951364;29;20469;-77
2023/09/20 09:17:53;;;;;;;8.93;2.90;;;;;;;20.03;88.60;100698.19;4951395;28;20038;-78
2023/09/20 09:20:28;;;;;;;8.55;3.10;;;;;;;19.79;88.67;100668.50;4951182;28;20019;-79
2023/09/20 09:23:37;;;;;;;6.95;2.50;;;;;;;20.09;89.05;100704.63;4951157;29;20067;-78
2023/09/20 09:26:09;;;;;;;7.53;2.53;;;;;;;19.70;89.01;100636.22;4951468;29;20032;-78
2023/09/20 09:28:50;;;;;;;5.03;2.40;;;;;;;20.00;89.11;100653.97;4951180;29;20028;-78
2023/09/20 09:31:39;;;;;;;8.10;2.30;;;;;;;20.41;87.47;100703.00;4951488;28;20035;-79
2023/09/20 09:34:09;;;;;;;7.70;2.40;;;;;;;19.96;87.53;100660.53;4954421;29;20027;-79
2023/09/20 09:37:16;;;;;;;9.40;3.05;;;;;;;20.38;88.89;100706.78;4953164;28;20019;-77
2023/09/20 09:40:11;;;;;;;5.00;2.40;;;;;;;19.73;86.62;100600.03;4960960;23;20189;-79
2023/09/20 09:42:39;;;;;;;7.45;2.40;;;;;;;20.35;85.67;100683.47;4954088;29;20377;-77
2023/09/20 09:45:06;;;;;;;5.82;2.42;;;;;;;20.32;86.64;100675.94;4954408;29;20096;-75
2023/09/20 09:47:33;;;;;;;5.63;2.38;;;;;;;20.28;85.54;100648.44;4954069;29;20030;-77
2023/09/20 09:50:01;;;;;;;6.65;2.25;;;;;;;20.61;86.45;100675.47;4954123;29;20027;-81
2023/09/20 09:52:28;;;;;;;4.57;2.38;;;;;;;21.01;86.91;100689.53;4954151;29;20110;-79
2023/09/20 09:54:54;;;;;;;5.68;2.30;;;;;;;21.22;82.83;100688.97;4954137;29;20036;-77
2023/09/20 09:57:20;;;;;;;6.88;2.42;;;;;;;20.97;81.64;100654.94;4953812;29;20538;-80
2023/09/20 09:59:47;;;;;;;4.45;2.30;;;;;;;21.12;83.59;100678.66;4953924;29;20469;-79
2023/09/20 10:02:23;;;;;;;7.28;2.45;;;;;;;21.01;84.45;100664.09;4953941;29;20027;-79
2023/09/20 10:05:00;;;;;;;6.40;2.47;;;;;;;21.17;82.85;100679.00;4954005;29;20112;-79
2023/09/20 10:07:30;;;;;;;6.25;2.17;;;;;;;21.00;82.10;100645.88;4953580;29;20027;-77
2023/09/20 10:10:08;;;;;;;5.97;2.22;;;;;;;21.32;81.87;100674.69;4954026;29;20109;-81
2023/09/20 10:16:18;;;;;;;7.40;2.25;;;;;;;21.80;81.36;100667.56;4954404;29;20038;-79
2023/09/20 10:18:51;;;;;;;8.43;2.30;;;;;;;21.72;77.48;100670.22;4954347;29;20477;-78
2023/09/20 10:22:09;;;;;;;6.68;2.08;;;;;;;21.75;79.27;100670.72;4953428;29;20027;-80
2023/09/20 10:25:15;;;;;;;6.72;2.10;;;;;;;21.83;78.81;100663.75;4953888;28;20034;-83
2023/09/20 10:28:36;;;;;;;5.22;1.80;;;;;;;21.69;77.40;100655.63;4953505;28;20042;-79
2023/09/20 10:31:05;;;;;;;3.58;1.80;;;;;;;21.25;76.46;100600.19;4953762;29;20039;-79
2023/09/20 10:34:05;;;;;;;3.92;1.90;;;;;;;21.56;79.20;100625.66;4953885;29;20027;-80
2023/09/20 10:37:10;;;;;;;4.20;1.80;;;;;;;21.09;77.14;100522.28;4953478;28;20023;-77
2023/09/20 10:39:44;;;;;;;6.70;2.47;;;;;;;21.17;77.06;100530.13;4953464;28;20396;-78
2023/09/20 10:45:39;;;;;;;3.97;1.95;;;;;;;21.08;72.88;100528.53;4995700;28;20181;-80
2023/09/20 10:48:40;;;;;;;4.47;1.45;;;;;;;21.55;74.50;100638.00;4893757;28;20052;-83
2023/09/20 10:51:07;;;;;;;6.53;1.65;;;;;;;21.21;76.86;100583.13;4894345;29;20572;-81
2023/09/20 11:00:25;;;;;;;7.22;1.70;;;;;;;21.37;77.59;100632.16;4894635;28;20063;-82
2023/09/20 11:46:26;;;;;;;6.63;1.73;;;;;;;21.83;72.69;100548.94;6021912;22;20392;-75
2023/09/20 11:52:10;;;;;;;5.43;1.60;;;;;;;21.61;71.26;100499.81;5019394;28;20091;-78
2023/09/20 11:54:38;;;;;;;3.22;1.30;;;;;;;21.72;71.36;100526.50;4991290;28;20361;-77
2023/09/20 11:57:17;;;;;;;5.90;1.30;;;;;;;22.00;70.35;100552.22;4990588;28;20026;-78
2023/09/20 12:08:16;;;;;;;3.95;1.55;;;;;;;22.23;70.66;100589.88;4930751;28;20508;-76
2023/09/20 12:10:42;;;;;;;5.28;1.50;;;;;;;22.15;69.49;100586.50;4932681;29;20058;-76
2023/09/20 12:13:07;;;;;;;4.38;1.25;;;;;;;22.13;70.48;100583.25;4932882;29;20031;-79
2023/09/20 12:15:38;;;;;;;3.30;1.55;;;;;;;22.18;71.32;100626.41;4932883;29;20024;-79
2023/09/20 12:18:04;;;;;;;4.00;1.40;;;;;;;22.13;71.99;100605.09;4932873;29;20032;-77
2023/09/20 12:23:04;;;;;;;4.47;1.98;;;;;;;21.81;71.09;100579.81;5207948;22;20061;-76
2023/09/20 12:25:30;;;;;;;5.63;1.75;;;;;;;21.80;72.20;100598.41;4971118;28;20670;-74
2023/09/20 12:27:56;;;;;;;4.22;1.50;;;;;;;21.67;74.71;100585.84;4971059;28;20498;-77
2023/09/20 12:30:21;;;;;;;5.10;1.50;;;;;;;21.58;73.74;100590.34;4971044;28;20031;-75
2023/09/20 12:32:49;;;;;;;3.85;1.40;;;;;;;21.58;75.03;100597.41;4971053;28;20499;-76
2023/09/20 12:35:15;;;;;;;4.38;1.58;;;;;;;21.60;75.01;100603.28;4970928;28;20445;-75
2023/09/20 12:37:40;;;;;;;4.20;1.38;;;;;;;21.62;76.61;100599.50;4953091;28;20079;-77
2023/09/20 12:40:09;;;;;;;4.57;1.48;;;;;;;21.52;74.08;100579.69;4970790;28;20035;-81
2023/09/20 12:43:01;;;;;;;6.15;1.80;;;;;;;21.75;74.68;100585.81;4971131;28;20022;-80
2023/09/20 12:45:38;;;;;;;4.68;1.50;;;;;;;21.79;73.33;100584.44;4952894;28;20039;-80
2023/09/20 13:12:15;;;;;;;3.95;1.77;;;;;;;20.97;75.82;100549.09;4954668;29;20389;-81
2023/09/20 13:29:20;;;;;;;5.82;1.63;;;;;;;21.44;75.48;100526.22;4935554;29;20050;-80
2023/09/20 13:31:47;;;;;;;3.70;1.60;;;;;;;20.97;74.45;100451.97;4934037;28;20055;-78
2023/09/20 13:38:04;;;;;;;2.40;1.40;;;;;;;21.52;76.33;100517.44;4969996;23;20063;-79
2023/09/20 13:40:30;;;;;;;3.35;1.50;;;;;;;21.14;76.70;100437.75;4973489;28;20100;-77
2023/09/20 13:53:13;;;;;;;3.67;1.60;;;;;;;21.51;73.85;100442.25;4913778;29;20075;-79
2023/09/20 13:56:01;;;;;;;4.43;1.20;;;;;;;21.91;74.73;100487.56;4913877;28;20028;-79
2023/09/20 13:58:26;;;;;;;5.20;1.35;;;;;;;21.19;72.90;100375.03;4913770;29;20028;-76
2023/09/20 14:00:51;;;;;;;4.57;1.50;;;;;;;21.53;73.03;100437.63;4913850;29;20565;-75
2023/09/20 14:03:45;;;;;;;4.13;1.50;;;;;;;21.98;74.40;100480.59;4913888;28;20060;-78
2023/09/20 14:06:21;;;;;;;4.40;1.20;;;;;;;21.91;72.51;100483.13;4913824;29;20032;-76
2023/09/20 14:08:46;;;;;;;3.15;1.35;;;;;;;21.60;72.68;100430.69;4913421;29;20047;-76
2023/09/20 14:11:35;;;;;;;5.22;1.30;;;;;;;21.82;72.87;100478.94;4897999;29;20028;-77
2023/09/20 14:14:21;;;;;;;4.22;1.52;;;;;;;21.46;74.70;100403.38;4914166;29;20108;-76